createdAt,value
2023-02-21T00:02:29.471Z,42.83
2023-02-21T00:05:30.146Z,45.67
2023-02-21T00:08:31.881Z,37.40
2023-02-21T00:11:32.695Z,31.60
2023-02-21T00:14:33.233Z,31.87
2023-02-21T00:17:33.440Z,33.97
2023-02-21T00:20:34.488Z,31.10
2023-02-21T00:23:36.602Z,31.87
2023-02-21T00:26:37.277Z,27.27
2023-02-21T00:29:37.627Z,38.10
2023-02-21T00:32:38.542Z,39.03
2023-02-21T00:35:39.003Z,36.07
2023-02-21T00:38:41.883Z,33.07
2023-02-21T00:41:42.705Z,26.60
2023-02-21T00:44:43.148Z,25.30
2023-02-21T00:47:45.108Z,32.57
2023-02-21T00:50:45.929Z,30.17
2023-02-21T00:53:48.214Z,31.43
2023-02-21T00:56:48.824Z,25.37
2023-02-21T00:59:49.230Z,27.50
2023-02-21T01:02:50.089Z,25.07
2023-02-21T01:05:50.863Z,18.93
2023-02-21T01:08:52.574Z,22.30
2023-02-21T01:11:53.284Z,19.47
2023-02-21T01:14:53.550Z,23.97
2023-02-21T01:17:54.241Z,29.77
2023-02-21T01:20:54.859Z,25.07
2023-02-21T01:23:57.044Z,27.20
2023-02-21T01:26:57.917Z,25.90
2023-02-21T01:29:58.118Z,28.63
2023-02-21T01:32:58.754Z,24.43
2023-02-21T01:35:59.620Z,24.83
2023-02-21T01:39:01.693Z,22.80
2023-02-21T01:42:02.393Z,23.13
2023-02-21T01:45:07.079Z,19.60
2023-02-21T01:48:08.043Z,20.37
2023-02-21T01:51:08.512Z,17.37
2023-02-21T01:54:11.454Z,19.23
2023-02-21T01:57:13.420Z,16.77
2023-02-21T02:00:16.517Z,18.70
2023-02-21T02:03:19.548Z,17.53
2023-02-21T02:06:22.585Z,17.33
2023-02-21T02:09:35.068Z,20.67
2023-02-21T02:12:33.550Z,16.47
2023-02-21T02:15:29.287Z,18.20
2023-02-21T02:18:34.570Z,18.43
2023-02-21T02:22:00.800Z,18.43
2023-02-21T02:25:01.774Z,15.77
2023-02-21T02:28:15.884Z,17.73
2023-02-21T02:31:37.584Z,15.93
2023-02-21T02:34:43.486Z,14.83
2023-02-21T02:37:37.455Z,14.00
2023-02-21T02:40:29.488Z,13.17
2023-02-21T02:43:21.741Z,16.33
2023-02-21T02:46:09.962Z,20.10
2023-02-21T02:48:59.396Z,16.07
2023-02-21T02:51:44.435Z,17.13
2023-02-21T02:54:27.847Z,17.00
2023-02-21T02:57:13.535Z,15.10
2023-02-21T02:59:59.009Z,15.73
2023-02-21T03:02:54.395Z,15.03
2023-02-21T03:05:59.103Z,18.03
2023-02-21T03:08:53.422Z,13.03
2023-02-21T03:11:42.373Z,13.73
2023-02-21T03:14:36.316Z,12.53
2023-02-21T03:17:25.022Z,13.67
2023-02-21T03:20:11.165Z,13.10
2023-02-21T03:22:57.191Z,11.63
2023-02-21T03:25:43.515Z,14.33
2023-02-21T03:28:27.492Z,13.23
2023-02-21T03:31:15.667Z,11.50
2023-02-21T03:33:59.104Z,13.87
2023-02-21T03:36:42.886Z,14.80
2023-02-21T03:39:26.036Z,14.50
2023-02-21T03:42:10.478Z,25.77
2023-02-21T03:44:53.584Z,24.93
2023-02-21T03:47:36.846Z,22.53
2023-02-21T03:50:20.436Z,20.27
2023-02-21T03:53:03.478Z,23.03
2023-02-21T03:55:46.879Z,24.40
2023-02-21T03:58:31.433Z,19.37
2023-02-21T04:01:14.705Z,24.27
2023-02-21T04:03:58.093Z,27.43
2023-02-21T04:06:41.520Z,29.80
2023-02-21T04:09:26.628Z,24.43
2023-02-21T04:12:10.597Z,21.03
2023-02-21T04:14:59.186Z,25.23
2023-02-21T04:17:42.341Z,17.73
2023-02-21T04:20:25.406Z,19.30
2023-02-21T04:23:09.530Z,29.43
2023-02-21T04:25:53.973Z,22.87
2023-02-21T04:28:39.492Z,25.70
2023-02-21T04:31:24.349Z,26.00
2023-02-21T04:34:12.271Z,23.07
2023-02-21T04:36:56.020Z,17.43
2023-02-21T04:39:39.235Z,24.43
2023-02-21T04:42:22.954Z,23.50
2023-02-21T04:45:06.609Z,23.60
2023-02-21T04:47:51.111Z,28.60
2023-02-21T04:50:34.565Z,21.50
2023-02-21T04:53:17.704Z,31.90
2023-02-21T04:56:00.946Z,24.97
2023-02-21T04:58:45.617Z,23.57
2023-02-21T05:01:31.454Z,25.17
2023-02-21T05:04:16.153Z,23.67
2023-02-21T05:07:00.429Z,21.20
2023-02-21T05:09:43.459Z,32.53
2023-02-21T05:12:26.554Z,24.70
2023-02-21T05:15:11.515Z,36.97
2023-02-21T05:17:54.595Z,41.57
2023-02-21T05:20:39.052Z,30.57
2023-02-21T05:23:33.996Z,27.57
2023-02-21T05:26:17.093Z,23.87
2023-02-21T05:29:00.218Z,27.57
2023-02-21T05:31:43.454Z,25.50
2023-02-21T05:34:26.647Z,29.23
2023-02-21T05:37:11.404Z,34.30
2023-02-21T05:39:54.747Z,40.37
2023-02-21T05:42:37.911Z,38.47
2023-02-21T05:45:21.167Z,34.90
2023-02-21T05:48:04.436Z,47.63
2023-02-21T05:50:47.468Z,47.23
2023-02-21T05:53:32.052Z,44.73
2023-02-21T05:56:15.911Z,24.00
2023-02-21T05:58:59.038Z,25.30
2023-02-21T06:01:42.172Z,28.83
2023-02-21T06:04:25.640Z,39.03
2023-02-21T06:07:08.926Z,37.87
2023-02-21T06:09:53.551Z,49.40
2023-02-21T06:12:36.650Z,42.83
2023-02-21T06:15:21.119Z,40.23
2023-02-21T06:18:04.330Z,36.23
2023-02-21T06:20:47.658Z,34.83
2023-02-21T06:23:30.761Z,44.83
2023-02-21T06:26:16.293Z,52.30
2023-02-21T06:28:59.484Z,51.87
2023-02-21T06:31:42.702Z,57.23
2023-02-21T06:34:26.301Z,39.47
2023-02-21T06:37:09.397Z,23.10
2023-02-21T06:39:52.496Z,38.73
2023-02-21T06:42:37.830Z,30.70
2023-02-21T06:45:21.125Z,26.43
2023-02-21T06:48:04.214Z,22.03
2023-02-21T06:50:47.254Z,25.43
2023-02-21T06:53:30.477Z,19.23
2023-02-21T06:56:13.542Z,17.10
2023-02-21T06:58:58.338Z,16.77
2023-02-21T07:01:41.474Z,18.70
2023-02-21T07:04:25.327Z,17.67
2023-02-21T07:07:08.483Z,16.93
2023-02-21T07:09:51.696Z,14.80
2023-02-21T07:12:34.879Z,17.97
2023-02-21T07:15:19.458Z,17.10
2023-02-21T07:18:02.493Z,20.33
2023-02-21T07:20:45.497Z,16.33
2023-02-21T07:23:28.597Z,16.27
2023-02-21T07:26:12.243Z,26.00
2023-02-21T07:28:55.391Z,17.80
2023-02-21T07:31:39.986Z,22.27
2023-02-21T07:34:23.570Z,17.53
2023-02-21T07:37:06.673Z,21.83
2023-02-21T07:39:49.705Z,19.40
2023-02-21T07:42:32.854Z,19.30
2023-02-21T07:45:17.300Z,20.57
2023-02-21T07:48:01.795Z,28.43
2023-02-21T07:50:46.021Z,21.43
2023-02-21T07:53:29.232Z,20.00
2023-02-21T07:56:15.221Z,16.93
2023-02-21T07:58:58.274Z,26.43
2023-02-21T08:01:41.440Z,22.47
2023-02-21T08:04:26.090Z,18.77
2023-02-21T08:07:10.667Z,30.43
2023-02-21T08:09:53.827Z,22.17
2023-02-21T08:12:36.911Z,27.10
2023-02-21T08:15:20.469Z,24.40
2023-02-21T08:18:03.574Z,25.73
2023-02-21T08:20:48.605Z,30.03
2023-02-21T08:23:31.726Z,23.97
2023-02-21T08:26:14.742Z,25.63
2023-02-21T08:28:57.904Z,23.07
2023-02-21T08:31:42.236Z,20.00
2023-02-21T08:34:25.968Z,23.07
2023-02-21T08:37:17.595Z,21.50
2023-02-21T08:40:01.241Z,18.37
2023-02-21T08:42:44.328Z,18.17
2023-02-21T08:45:28.909Z,25.23
2023-02-21T08:48:12.518Z,30.60
2023-02-21T08:50:55.668Z,20.53
2023-02-21T08:53:40.145Z,27.17
2023-02-21T08:56:24.462Z,19.80
2023-02-21T08:59:09.597Z,26.03
2023-02-21T09:01:52.806Z,17.10
2023-02-21T09:04:37.166Z,16.20
2023-02-21T09:07:21.751Z,30.93
2023-02-21T09:10:09.916Z,21.57
2023-02-21T09:12:53.034Z,16.27
2023-02-21T09:15:36.321Z,13.30
2023-02-21T09:18:19.390Z,18.23
2023-02-21T09:21:02.556Z,16.23
2023-02-21T09:23:45.778Z,17.70
2023-02-21T09:26:33.013Z,19.30
2023-02-21T09:29:16.772Z,23.30
2023-02-21T09:31:59.998Z,18.73
2023-02-21T09:34:43.083Z,16.13
2023-02-21T09:37:26.131Z,18.33
2023-02-21T09:40:16.971Z,16.70
2023-02-21T09:43:03.514Z,13.10
2023-02-21T09:45:47.661Z,22.80
2023-02-21T09:48:32.481Z,24.03
2023-02-21T09:51:16.729Z,11.77
2023-02-21T09:54:01.744Z,16.80
2023-02-21T09:56:46.267Z,10.83
2023-02-21T09:59:33.433Z,11.47
2023-02-21T10:02:34.474Z,23.60
2023-02-21T10:05:30.541Z,10.83
2023-02-21T10:08:24.391Z,22.57
2023-02-21T10:11:23.822Z,17.77
2023-02-21T10:14:19.026Z,14.83
2023-02-21T10:17:13.099Z,15.97
2023-02-21T10:20:01.735Z,12.97
2023-02-21T10:22:48.174Z,19.43
2023-02-21T10:25:33.725Z,18.30
2023-02-21T10:28:20.404Z,22.40
2023-02-21T10:31:09.832Z,19.27
2023-02-21T10:33:54.338Z,25.07
2023-02-21T10:36:40.202Z,19.13
2023-02-21T10:39:32.174Z,16.67
2023-02-21T10:42:27.723Z,14.87
2023-02-21T10:45:14.109Z,13.57
2023-02-21T10:48:02.982Z,19.80
2023-02-21T10:50:53.519Z,15.17
2023-02-21T10:53:38.725Z,11.17
2023-02-21T10:56:25.367Z,11.57
2023-02-21T10:59:08.802Z,14.70
2023-02-21T11:01:53.550Z,23.05
2023-02-21T11:04:38.745Z,11.43
2023-02-21T11:07:24.616Z,19.50
2023-02-21T11:10:28.520Z,27.15
2023-02-21T11:13:19.590Z,17.80
2023-02-21T11:16:13.107Z,20.15
2023-02-21T11:19:09.053Z,11.57
2023-02-21T11:21:57.772Z,14.63
2023-02-21T11:25:02.001Z,10.77
2023-02-21T11:27:46.538Z,6.93
2023-02-21T11:30:31.546Z,11.82
2023-02-21T11:33:22.048Z,7.50
2023-02-21T11:36:14.104Z,5.65
2023-02-21T11:39:16.920Z,12.48
2023-02-21T11:42:04.496Z,7.10
2023-02-21T11:44:49.362Z,8.00
2023-02-21T11:47:39.443Z,6.20
2023-02-21T11:50:27.138Z,6.20
2023-02-21T11:53:22.615Z,4.30
2023-02-21T11:56:16.362Z,14.23
2023-02-21T11:59:06.852Z,15.63
2023-02-21T12:02:01.718Z,4.27
2023-02-21T12:04:57.708Z,8.93
2023-02-21T12:07:47.168Z,7.33
2023-02-21T12:10:42.342Z,7.40
2023-02-21T12:13:34.430Z,7.27
2023-02-21T12:16:28.506Z,6.80
2023-02-21T12:19:28.881Z,7.17
2023-02-21T12:22:23.956Z,6.50
2023-02-21T12:25:17.762Z,6.63
2023-02-21T12:28:11.855Z,7.23
2023-02-21T12:31:13.495Z,7.20
2023-02-21T12:34:16.954Z,10.27
2023-02-21T12:37:11.895Z,13.17
2023-02-21T12:40:10.463Z,8.27
2023-02-21T12:43:30.130Z,7.60
2023-02-21T12:46:24.092Z,10.43
2023-02-21T12:49:15.760Z,10.80
2023-02-21T12:52:03.980Z,7.73
2023-02-21T12:54:56.846Z,8.10
2023-02-21T12:57:48.856Z,8.63
2023-02-21T13:00:39.026Z,8.43
2023-02-21T13:03:38.113Z,7.50
2023-02-21T13:06:31.522Z,7.43
2023-02-21T13:09:23.335Z,9.83
2023-02-21T13:12:11.267Z,9.47
2023-02-21T13:14:58.690Z,8.47
2023-02-21T13:17:43.053Z,9.20
2023-02-21T13:20:32.363Z,8.67
2023-02-21T13:24:07.972Z,7.00
2023-02-21T13:27:02.292Z,7.60
2023-02-21T13:29:46.044Z,8.77
2023-02-21T13:32:29.585Z,7.90
2023-02-21T13:35:20.318Z,8.83
2023-02-21T13:38:08.329Z,6.30
2023-02-21T13:40:55.364Z,12.13
2023-02-21T13:43:48.630Z,9.33
2023-02-21T13:47:17.490Z,7.57
2023-02-21T13:50:01.059Z,8.67
2023-02-21T13:53:14.070Z,10.23
2023-02-21T13:56:43.953Z,8.50
2023-02-21T13:59:38.327Z,11.00
2023-02-21T14:02:31.237Z,10.63
2023-02-21T14:05:14.508Z,11.33
2023-02-21T14:08:02.592Z,10.80
2023-02-21T14:10:51.176Z,8.27
2023-02-21T14:13:37.534Z,7.10
2023-02-21T14:16:26.618Z,12.13
2023-02-21T14:19:12.297Z,9.60
2023-02-21T14:22:04.043Z,8.93
2023-02-21T14:24:49.857Z,7.00
2023-02-21T14:27:37.286Z,7.47
2023-02-21T14:30:33.893Z,9.23
2023-02-21T14:33:27.487Z,8.93
2023-02-21T14:36:15.128Z,9.63
2023-02-21T14:38:59.329Z,12.17
2023-02-21T14:41:56.734Z,12.67
2023-02-21T14:44:56.930Z,10.47
2023-02-21T14:48:01.414Z,15.07
2023-02-21T14:51:07.403Z,14.47
2023-02-21T14:54:23.553Z,15.57
2023-02-21T14:57:28.754Z,15.37
2023-02-21T15:00:28.420Z,11.13
2023-02-21T15:03:17.500Z,17.17
2023-02-21T15:06:06.257Z,16.07
2023-02-21T15:08:51.043Z,16.40
2023-02-21T15:11:37.710Z,11.53
2023-02-21T15:14:27.258Z,13.07
2023-02-21T15:17:18.571Z,21.90
2023-02-21T15:20:10.490Z,12.27
2023-02-21T15:23:01.970Z,14.23
2023-02-21T15:25:46.618Z,12.43
2023-02-21T15:28:31.395Z,13.90
2023-02-21T15:31:16.678Z,16.10
2023-02-21T15:34:01.438Z,21.73
2023-02-21T15:36:45.497Z,15.93
2023-02-21T15:39:34.814Z,13.93
2023-02-21T15:42:19.973Z,16.73
2023-02-21T15:45:11.509Z,13.57
2023-02-21T15:47:55.743Z,9.73
2023-02-21T15:50:43.905Z,15.77
2023-02-21T15:53:27.107Z,10.87
2023-02-21T15:56:25.544Z,13.13
2023-02-21T15:59:15.186Z,16.50
2023-02-21T16:02:16.793Z,16.30
2023-02-21T16:04:59.950Z,12.77
2023-02-21T16:07:44.339Z,17.67
2023-02-21T16:10:28.555Z,21.77
2023-02-21T16:13:17.202Z,22.30
2023-02-21T16:16:02.179Z,37.03
2023-02-21T16:18:45.601Z,36.77
2023-02-21T16:21:31.108Z,29.57
2023-02-21T16:24:32.454Z,38.60
2023-02-21T16:27:20.958Z,38.37
2023-02-21T16:30:13.274Z,45.90
2023-02-21T16:33:01.338Z,37.47
2023-02-21T16:35:44.888Z,38.40
2023-02-21T16:38:30.304Z,37.17
2023-02-21T16:41:15.712Z,35.47
2023-02-21T16:43:59.274Z,27.93
2023-02-21T16:46:46.152Z,27.53
2023-02-21T16:49:29.633Z,28.20
2023-02-21T16:52:17.869Z,35.57
2023-02-21T16:55:01.113Z,30.37
2023-02-21T16:57:44.994Z,22.80
2023-02-21T17:00:30.502Z,27.03
2023-02-21T17:03:15.173Z,24.57
2023-02-21T17:06:00.383Z,40.43
2023-02-21T17:08:43.454Z,31.63
2023-02-21T17:11:26.670Z,43.40
2023-02-21T17:14:12.505Z,29.83
2023-02-21T17:16:58.506Z,29.03
2023-02-21T17:19:43.421Z,29.80
2023-02-21T17:22:26.533Z,33.87
2023-02-21T17:25:10.370Z,27.93
2023-02-21T17:27:53.384Z,31.07
2023-02-21T17:30:36.654Z,22.90
2023-02-21T17:33:19.836Z,26.90
2023-02-21T17:36:04.997Z,26.27
2023-02-21T17:38:48.048Z,31.77
2023-02-21T17:41:31.144Z,27.40
2023-02-21T17:44:14.718Z,21.27
2023-02-21T17:46:59.278Z,20.60
2023-02-21T17:49:42.568Z,19.90
2023-02-21T17:52:30.248Z,22.80
2023-02-21T17:55:20.545Z,23.87
2023-02-21T17:58:04.843Z,27.97
2023-02-21T18:00:50.175Z,22.03
2023-02-21T18:03:38.161Z,24.33
2023-02-21T18:06:23.173Z,24.80
2023-02-21T18:09:11.413Z,20.27
2023-02-21T18:11:56.897Z,19.03
2023-02-21T18:14:42.908Z,23.33
2023-02-21T18:17:27.256Z,17.83
2023-02-21T18:20:15.495Z,18.40
2023-02-21T18:22:58.937Z,17.33
2023-02-21T18:25:45.344Z,24.43
2023-02-21T18:28:29.315Z,21.90
2023-02-21T18:31:16.067Z,22.73
2023-02-21T18:33:59.948Z,24.57
2023-02-21T18:36:49.506Z,20.77
2023-02-21T18:39:33.556Z,20.93
2023-02-21T18:42:18.335Z,18.40
2023-02-21T18:45:01.488Z,19.33
2023-02-21T18:47:45.871Z,34.60
2023-02-21T18:50:28.993Z,23.93
2023-02-21T18:53:12.925Z,25.03
2023-02-21T18:55:57.500Z,26.90
2023-02-21T18:58:42.426Z,29.40
2023-02-21T19:01:27.258Z,22.53
2023-02-21T19:04:10.532Z,21.07
2023-02-21T19:06:57.194Z,22.57
2023-02-21T19:09:41.051Z,28.53
2023-02-21T19:12:24.644Z,36.93
2023-02-21T19:15:10.415Z,19.53
2023-02-21T19:17:53.515Z,27.53
2023-02-21T19:20:37.342Z,32.27
2023-02-21T19:23:20.578Z,31.90
2023-02-21T19:26:03.781Z,34.93
2023-02-21T19:28:47.809Z,35.97
2023-02-21T19:31:32.465Z,30.90
2023-02-21T19:34:15.979Z,33.43
2023-02-21T19:36:59.120Z,43.27
2023-02-21T19:39:42.273Z,25.40
2023-02-21T19:42:27.567Z,20.43
2023-02-21T19:45:10.983Z,21.80
2023-02-21T19:47:55.588Z,18.20
2023-02-21T19:50:38.981Z,27.07
2023-02-21T19:53:22.674Z,21.50
2023-02-21T19:56:06.467Z,19.83
2023-02-21T19:58:49.563Z,23.60
2023-02-21T20:01:34.187Z,18.23
2023-02-21T20:04:19.650Z,14.93
2023-02-21T20:07:03.135Z,15.00
2023-02-21T20:09:48.099Z,21.80
2023-02-21T20:12:32.683Z,20.50
2023-02-21T20:15:15.859Z,21.37
2023-02-21T20:18:00.864Z,22.17
2023-02-21T20:20:45.637Z,18.30
2023-02-21T20:23:28.901Z,17.20
2023-02-21T20:26:13.026Z,18.60
2023-02-21T20:28:57.241Z,17.63
2023-02-21T20:31:40.622Z,18.27
2023-02-21T20:34:24.952Z,18.23
2023-02-21T20:40:11.156Z,19.47
2023-02-21T20:42:54.535Z,20.67
2023-02-21T20:45:38.624Z,17.17
2023-02-21T20:48:28.262Z,18.47
2023-02-21T20:51:12.441Z,22.30
2023-02-21T20:53:55.883Z,17.40
2023-02-21T20:56:42.351Z,18.43
2023-02-21T20:59:27.875Z,22.20
2023-02-21T21:02:11.126Z,19.33
2023-02-21T21:04:55.031Z,18.27
2023-02-21T21:07:38.448Z,19.80
2023-02-21T21:10:21.882Z,21.20
2023-02-21T21:13:07.194Z,18.40
2023-02-21T21:15:50.435Z,20.73
2023-02-21T21:18:34.840Z,25.40
2023-02-21T21:21:18.833Z,19.50
2023-02-21T21:24:02.277Z,19.03
2023-02-21T21:26:51.364Z,22.10
2023-02-21T21:29:36.809Z,17.70
2023-02-21T21:32:22.604Z,19.13
2023-02-21T21:35:07.677Z,18.23
2023-02-21T21:37:51.114Z,16.60
2023-02-21T21:40:35.806Z,21.17
2023-02-21T21:43:19.163Z,19.53
2023-02-21T21:46:04.347Z,18.03
2023-02-21T21:48:49.059Z,18.37
2023-02-21T21:51:34.115Z,19.67
2023-02-21T21:54:20.765Z,21.20
2023-02-21T21:57:05.563Z,19.97
2023-02-21T21:59:51.147Z,17.07
2023-02-21T22:02:35.997Z,20.80
2023-02-21T22:05:21.194Z,39.33
2023-02-21T22:08:04.795Z,16.40
2023-02-21T22:10:48.436Z,23.83
2023-02-21T22:13:34.121Z,17.10
2023-02-21T22:16:18.197Z,19.27
2023-02-21T22:19:02.801Z,14.27
2023-02-21T22:21:46.755Z,14.93
2023-02-21T22:24:30.428Z,18.33
2023-02-21T22:27:14.995Z,20.53
2023-02-21T22:29:58.588Z,17.63
2023-02-21T22:32:42.845Z,17.43
2023-02-21T22:35:29.068Z,20.00
2023-02-21T22:38:14.605Z,20.37
2023-02-21T22:41:00.158Z,21.50
2023-02-21T22:43:43.272Z,33.37
2023-02-21T22:46:29.253Z,30.97
2023-02-21T22:49:16.875Z,36.73
2023-02-21T22:52:01.832Z,37.43
2023-02-21T22:54:44.962Z,30.20
2023-02-21T22:57:28.162Z,37.77
2023-02-21T23:00:19.729Z,32.33
2023-02-21T23:03:12.870Z,38.90
2023-02-21T23:06:02.076Z,32.63
2023-02-21T23:08:50.578Z,35.30
2023-02-21T23:11:34.075Z,38.53
2023-02-21T23:14:19.100Z,39.33
2023-02-21T23:17:02.664Z,38.43
2023-02-21T23:19:45.788Z,36.50
2023-02-21T23:22:29.024Z,46.17
2023-02-21T23:25:20.977Z,33.17
2023-02-21T23:28:08.824Z,52.60
2023-02-21T23:30:52.271Z,49.83
2023-02-21T23:33:35.368Z,54.03
2023-02-21T23:36:22.744Z,53.93
2023-02-21T23:39:09.361Z,52.40
2023-02-21T23:41:53.919Z,45.93
2023-02-21T23:44:37.197Z,39.73
2023-02-21T23:47:20.322Z,33.13
2023-02-21T23:50:07.492Z,38.83
2023-02-21T23:52:54.539Z,42.40
2023-02-21T23:55:37.591Z,35.37
2023-02-21T23:58:22.500Z,31.70
